createdAt,value
2023-01-03T00:00:23.028Z,0.00
2023-01-03T00:01:22.925Z,0.00
2023-01-03T00:02:22.936Z,0.00
2023-01-03T00:03:22.897Z,0.00
2023-01-03T00:04:22.933Z,0.00
2023-01-03T00:05:22.862Z,0.00
2023-01-03T00:06:22.879Z,0.00
2023-01-03T00:07:22.851Z,0.00
2023-01-03T00:08:22.827Z,0.00
2023-01-03T00:09:22.824Z,0.00
2023-01-03T00:10:22.816Z,0.00
2023-01-03T00:11:22.788Z,0.00
2023-01-03T00:12:28.611Z,0.00
2023-01-03T00:13:23.770Z,0.00
2023-01-03T00:14:22.747Z,0.00
2023-01-03T00:15:22.740Z,0.00
2023-01-03T00:16:22.763Z,0.00
2023-01-03T00:17:22.865Z,0.00
2023-01-03T00:18:22.687Z,0.00
2023-01-03T00:19:22.686Z,0.00
2023-01-03T00:20:22.672Z,0.00
2023-01-03T00:21:22.662Z,0.00
2023-01-03T00:22:22.661Z,0.00
2023-01-03T00:23:22.631Z,0.00
2023-01-03T00:24:22.619Z,0.00
2023-01-03T00:25:22.613Z,0.00
2023-01-03T00:26:22.585Z,0.00
2023-01-03T00:27:22.594Z,0.00
2023-01-03T00:28:22.567Z,0.00
2023-01-03T00:29:22.581Z,0.00
2023-01-03T00:30:22.538Z,0.00
2023-01-03T00:31:22.625Z,0.00
2023-01-03T00:32:22.551Z,0.00
2023-01-03T00:33:22.495Z,0.00
2023-01-03T00:34:22.488Z,0.00
2023-01-03T00:35:22.482Z,0.00
2023-01-03T00:36:22.459Z,0.00
2023-01-03T00:37:22.463Z,0.00
2023-01-03T00:38:22.421Z,0.00
2023-01-03T00:39:22.438Z,0.00
2023-01-03T00:40:22.399Z,0.00
2023-01-03T00:41:22.403Z,0.00
2023-01-03T00:42:22.404Z,0.00
2023-01-03T00:43:22.373Z,0.00
2023-01-03T00:44:22.355Z,0.00
2023-01-03T00:45:25.438Z,0.00
2023-01-03T00:46:22.411Z,0.00
2023-01-03T00:47:22.337Z,0.00
2023-01-03T00:48:22.303Z,0.00
2023-01-03T00:49:22.310Z,0.00
2023-01-03T00:50:22.272Z,0.00
2023-01-03T00:51:22.273Z,0.00
2023-01-03T00:52:22.272Z,0.00
2023-01-03T00:53:22.246Z,0.00
2023-01-03T00:54:22.254Z,0.00
2023-01-03T00:55:22.223Z,0.00
2023-01-03T00:56:22.203Z,0.00
2023-01-03T00:57:22.197Z,0.00
2023-01-03T00:58:22.197Z,0.00
2023-01-03T00:59:22.177Z,0.00
2023-01-03T01:00:22.135Z,0.00
2023-01-03T01:01:22.183Z,0.00
2023-01-03T01:02:22.266Z,0.00
2023-01-03T01:03:22.294Z,0.00
2023-01-03T01:04:22.120Z,0.00
2023-01-03T01:05:22.101Z,0.00
2023-01-03T01:06:22.064Z,0.00
2023-01-03T01:07:22.065Z,0.00
2023-01-03T01:08:22.051Z,0.00
2023-01-03T01:09:22.047Z,0.00
2023-01-03T01:10:22.013Z,0.00
2023-01-03T01:11:22.012Z,0.00
2023-01-03T01:12:21.984Z,0.00
2023-01-03T01:13:21.995Z,0.00
2023-01-03T01:14:21.993Z,0.00
2023-01-03T01:15:21.957Z,0.00
2023-01-03T01:16:21.975Z,0.00
2023-01-03T01:17:22.981Z,0.00
2023-01-03T01:18:21.916Z,0.00
2023-01-03T01:19:21.902Z,0.00
2023-01-03T01:20:21.889Z,0.00
2023-01-03T01:21:21.894Z,0.00
2023-01-03T01:22:21.854Z,0.00
2023-01-03T01:23:21.879Z,0.00
2023-01-03T01:24:21.825Z,0.00
2023-01-03T01:25:21.817Z,0.00
2023-01-03T01:26:21.811Z,0.00
2023-01-03T01:27:21.799Z,0.00
2023-01-03T01:28:21.763Z,0.00
2023-01-03T01:29:21.803Z,0.00
2023-01-03T01:30:21.751Z,0.00
2023-01-03T01:31:21.764Z,0.00
2023-01-03T01:32:21.744Z,0.00
2023-01-03T01:33:21.709Z,0.00
2023-01-03T01:34:21.742Z,0.00
2023-01-03T01:35:21.688Z,0.00
2023-01-03T01:36:21.658Z,0.00
2023-01-03T01:37:21.660Z,0.00
2023-01-03T01:38:21.640Z,0.00
2023-01-03T01:39:21.647Z,0.00
2023-01-03T01:40:21.619Z,0.00
2023-01-03T01:41:21.609Z,0.00
2023-01-03T01:42:24.028Z,0.00
2023-01-03T01:43:22.569Z,0.00
2023-01-03T01:44:21.590Z,0.00
2023-01-03T01:45:21.553Z,0.00
2023-01-03T01:46:21.581Z,0.00
2023-01-03T01:47:21.518Z,0.00
2023-01-03T01:48:21.508Z,0.00
2023-01-03T01:49:21.531Z,0.00
2023-01-03T01:50:21.480Z,0.00
2023-01-03T01:51:21.481Z,0.00
2023-01-03T01:52:21.442Z,0.00
2023-01-03T01:53:21.481Z,0.00
2023-01-03T01:54:21.451Z,0.00
2023-01-03T01:55:21.425Z,0.00
2023-01-03T01:56:21.400Z,0.00
2023-01-03T01:57:21.408Z,0.00
2023-01-03T01:58:21.379Z,0.00
2023-01-03T01:59:21.380Z,0.00
2023-01-03T02:00:21.392Z,0.00
2023-01-03T02:01:21.412Z,0.00
2023-01-03T02:02:21.527Z,0.00
2023-01-03T02:03:21.345Z,0.00
2023-01-03T02:04:21.341Z,0.00
2023-01-03T02:05:21.290Z,0.00
2023-01-03T02:06:21.272Z,0.00
2023-01-03T02:07:21.260Z,0.00
2023-01-03T02:08:21.251Z,0.00
2023-01-03T02:09:21.264Z,0.00
2023-01-03T02:10:21.231Z,0.00
2023-01-03T02:11:21.218Z,0.00
2023-01-03T02:12:21.189Z,0.00
2023-01-03T02:13:21.182Z,0.00
2023-01-03T02:14:21.173Z,0.00
2023-01-03T02:15:21.177Z,0.00
2023-01-03T02:16:21.230Z,0.00
2023-01-03T02:17:21.134Z,0.00
2023-01-03T02:18:21.124Z,0.00
2023-01-03T02:19:21.122Z,0.00
2023-01-03T02:20:21.102Z,0.00
2023-01-03T02:21:21.077Z,0.00
2023-01-03T02:22:21.093Z,0.00
2023-01-03T02:23:21.042Z,0.00
2023-01-03T02:24:21.042Z,0.00
2023-01-03T02:25:21.032Z,0.00
2023-01-03T02:26:21.024Z,0.00
2023-01-03T02:27:21.000Z,0.00
2023-01-03T02:28:20.994Z,0.00
2023-01-03T02:29:20.989Z,0.00
2023-01-03T02:30:20.983Z,0.00
2023-01-03T02:31:20.999Z,0.00
2023-01-03T02:32:20.942Z,0.00
2023-01-03T02:33:20.920Z,0.00
2023-01-03T02:34:20.903Z,0.00
2023-01-03T02:35:20.912Z,0.00
2023-01-03T02:36:20.893Z,0.00
2023-01-03T02:37:20.861Z,0.00
2023-01-03T02:38:20.853Z,0.00
2023-01-03T02:39:23.798Z,0.00
2023-01-03T02:40:20.826Z,0.00
2023-01-03T02:41:20.804Z,0.00
2023-01-03T02:42:20.804Z,0.00
2023-01-03T02:43:20.793Z,0.00
2023-01-03T02:44:20.775Z,0.00
2023-01-03T02:45:20.764Z,0.00
2023-01-03T02:46:20.810Z,0.00
2023-01-03T02:47:20.742Z,0.00
2023-01-03T02:48:20.719Z,0.00
2023-01-03T02:49:20.696Z,0.00
2023-01-03T02:50:20.718Z,0.00
2023-01-03T02:51:20.677Z,0.00
2023-01-03T02:52:20.657Z,0.00
2023-01-03T02:53:20.655Z,0.00
2023-01-03T02:54:20.639Z,0.00
2023-01-03T02:55:20.655Z,0.00
2023-01-03T02:56:20.628Z,0.00
2023-01-03T02:57:20.605Z,0.00
2023-01-03T02:58:20.585Z,0.00
2023-01-03T02:59:20.578Z,0.00
2023-01-03T03:00:20.588Z,0.00
2023-01-03T03:01:20.631Z,0.00
2023-01-03T03:02:20.662Z,0.00
2023-01-03T03:03:20.629Z,0.00
2023-01-03T03:04:20.518Z,0.00
2023-01-03T03:05:20.509Z,0.00
2023-01-03T03:06:20.487Z,0.00
2023-01-03T03:07:20.472Z,0.00
2023-01-03T03:08:20.447Z,0.00
2023-01-03T03:09:20.470Z,0.00
2023-01-03T03:10:20.441Z,0.00
2023-01-03T03:11:20.409Z,0.00
2023-01-03T03:12:20.408Z,0.00
2023-01-03T03:13:20.379Z,0.00
2023-01-03T03:14:20.382Z,0.00
2023-01-03T03:15:20.375Z,0.00
2023-01-03T03:16:20.404Z,0.00
2023-01-03T03:17:20.323Z,0.00
2023-01-03T03:18:20.332Z,0.00
2023-01-03T03:19:20.301Z,0.00
2023-01-03T03:20:20.325Z,0.00
2023-01-03T03:21:20.290Z,0.00
2023-01-03T03:22:20.269Z,0.00
2023-01-03T03:23:20.240Z,0.00
2023-01-03T03:24:20.249Z,0.00
2023-01-03T03:25:20.251Z,0.00
2023-01-03T03:26:20.233Z,0.00
2023-01-03T03:27:20.200Z,0.00
2023-01-03T03:28:20.180Z,0.00
2023-01-03T03:29:20.182Z,0.00
2023-01-03T03:30:28.919Z,0.00
2023-01-03T03:31:20.224Z,0.00
2023-01-03T03:32:20.147Z,0.00
2023-01-03T03:33:20.123Z,0.00
2023-01-03T03:34:20.105Z,0.00
2023-01-03T03:35:20.144Z,0.00
2023-01-03T03:36:20.082Z,0.00
2023-01-03T03:37:20.080Z,0.00
2023-01-03T03:38:20.052Z,0.00
2023-01-03T03:39:20.037Z,0.00
2023-01-03T03:40:20.061Z,0.00
2023-01-03T03:41:20.008Z,0.00
2023-01-03T03:42:20.008Z,0.00
2023-01-03T03:43:19.985Z,0.00
2023-01-03T03:44:19.994Z,0.00
2023-01-03T03:45:20.007Z,0.00
2023-01-03T03:46:19.999Z,0.00
2023-01-03T03:47:20.006Z,0.00
2023-01-03T03:48:19.925Z,0.00
2023-01-03T03:49:19.902Z,0.00
2023-01-03T04:02:49.879Z,0.00
2023-01-03T04:03:49.770Z,0.00
2023-01-03T04:04:49.684Z,0.00
2023-01-03T04:05:49.702Z,0.00
2023-01-03T04:06:49.667Z,0.00
2023-01-03T04:07:49.652Z,0.00
2023-01-03T04:08:49.659Z,0.00
2023-01-03T04:09:49.637Z,0.00
2023-01-03T04:10:49.657Z,0.00
2023-01-03T04:11:49.601Z,0.00
2023-01-03T04:12:49.606Z,0.00
2023-01-03T04:13:49.582Z,0.00
2023-01-03T04:14:49.573Z,0.00
2023-01-03T04:15:49.581Z,0.00
2023-01-03T04:16:49.605Z,0.00
2023-01-03T04:17:49.513Z,0.00
2023-01-03T04:18:49.543Z,0.00
2023-01-03T04:19:49.497Z,0.00
2023-01-03T04:20:49.504Z,0.00
2023-01-03T04:21:49.465Z,0.00
2023-01-03T04:22:49.461Z,0.00
2023-01-03T04:23:49.448Z,0.00
2023-01-03T04:24:49.428Z,0.00
2023-01-03T04:25:49.445Z,0.00
2023-01-03T04:26:49.407Z,0.00
2023-01-03T04:27:49.398Z,0.00
2023-01-03T04:28:49.372Z,0.00
2023-01-03T04:29:49.369Z,0.00
2023-01-03T04:30:49.374Z,0.00
2023-01-03T04:31:49.380Z,0.00
2023-01-03T04:32:49.339Z,0.00
2023-01-03T04:33:49.304Z,0.00
2023-01-03T04:34:49.310Z,0.00
2023-01-03T04:35:49.296Z,0.00
2023-01-03T04:36:49.288Z,0.00
2023-01-03T04:37:49.267Z,0.00
2023-01-03T04:38:49.238Z,0.00
2023-01-03T04:39:49.228Z,0.00
2023-01-03T04:40:49.234Z,0.00
2023-01-03T04:41:49.209Z,0.00
2023-01-03T04:42:49.300Z,0.00
2023-01-03T04:43:49.157Z,0.00
2023-01-03T04:44:49.160Z,0.00
2023-01-03T04:45:49.193Z,0.00
2023-01-03T04:46:52.853Z,0.00
2023-01-03T04:47:49.116Z,0.00
2023-01-03T04:48:49.095Z,0.00
2023-01-03T04:49:49.089Z,0.00
2023-01-03T04:50:49.105Z,0.00
2023-01-03T04:51:49.068Z,0.00
2023-01-03T04:52:49.048Z,0.00
2023-01-03T04:53:49.039Z,0.00
2023-01-03T04:54:49.033Z,0.00
2023-01-03T04:55:49.037Z,0.00
2023-01-03T04:56:48.998Z,0.00
2023-01-03T04:57:48.965Z,0.00
2023-01-03T04:58:48.969Z,0.00
2023-01-03T04:59:48.958Z,0.00
2023-01-03T05:00:48.994Z,0.00
2023-01-03T05:01:48.967Z,0.00
2023-01-03T05:02:48.915Z,0.00
2023-01-03T05:03:48.956Z,0.00
2023-01-03T05:04:48.910Z,0.00
2023-01-03T05:05:48.899Z,0.00
2023-01-03T05:06:48.858Z,0.00
2023-01-03T05:07:48.859Z,0.00
2023-01-03T05:08:48.848Z,0.00
2023-01-03T05:09:48.828Z,0.00
2023-01-03T05:10:48.823Z,0.00
2023-01-03T05:11:48.802Z,0.00
2023-01-03T05:12:48.781Z,0.00
2023-01-03T05:13:48.785Z,0.00
2023-01-03T05:14:48.751Z,0.00
2023-01-03T05:15:48.740Z,0.00
2023-01-03T05:16:48.790Z,0.00
2023-01-03T05:17:48.722Z,0.00
2023-01-03T05:18:48.718Z,0.00
2023-01-03T05:19:48.686Z,0.00
2023-01-03T05:20:48.681Z,0.00
2023-01-03T05:21:48.676Z,0.00
2023-01-03T05:22:48.644Z,0.00
2023-01-03T05:23:48.636Z,0.00
2023-01-03T05:24:48.621Z,0.00
2023-01-03T05:25:48.605Z,0.00
2023-01-03T05:26:48.611Z,0.00
2023-01-03T05:27:48.581Z,0.00
2023-01-03T05:28:48.587Z,0.00
2023-01-03T05:29:48.548Z,0.00
2023-01-03T05:30:48.554Z,0.00
2023-01-03T05:31:48.623Z,0.00
2023-01-03T05:32:48.523Z,0.00
2023-01-03T05:33:48.504Z,0.00
2023-01-03T05:34:48.487Z,0.00
2023-01-03T05:35:48.488Z,0.00
2023-01-03T05:36:48.469Z,0.00
2023-01-03T05:37:48.461Z,0.00
2023-01-03T05:38:48.432Z,0.00
2023-01-03T05:39:48.421Z,0.00
2023-01-03T05:40:48.403Z,0.00
2023-01-03T05:41:48.431Z,0.00
2023-01-03T05:42:48.380Z,0.00
2023-01-03T05:43:48.371Z,0.00
2023-01-03T05:44:48.362Z,0.00
2023-01-03T05:45:48.376Z,0.00
2023-01-03T05:46:48.341Z,0.00
2023-01-03T05:47:48.330Z,0.00
2023-01-03T05:48:48.301Z,0.00
2023-01-03T05:49:48.281Z,0.00
2023-01-03T05:50:48.259Z,0.00
2023-01-03T05:51:48.278Z,0.00
2023-01-03T05:52:48.251Z,0.00
2023-01-03T05:53:48.232Z,0.00
2023-01-03T05:54:48.214Z,0.00
2023-01-03T05:55:48.218Z,0.00
2023-01-03T05:56:48.207Z,0.00
2023-01-03T05:57:48.205Z,0.00
2023-01-03T05:58:48.162Z,0.00
2023-01-03T05:59:48.157Z,0.00
2023-01-03T06:00:48.152Z,0.00
2023-01-03T06:01:48.315Z,0.00
2023-01-03T06:02:48.186Z,0.00
2023-01-03T06:03:48.148Z,0.00
2023-01-03T06:04:48.193Z,0.00
2023-01-03T06:05:50.588Z,0.00
2023-01-03T06:06:48.108Z,0.00
2023-01-03T06:07:48.065Z,0.00
2023-01-03T06:08:48.042Z,0.00
2023-01-03T06:09:48.034Z,0.00
2023-01-03T06:10:48.035Z,0.00
2023-01-03T06:11:48.067Z,0.00
2023-01-03T06:12:48.005Z,0.00
2023-01-03T06:13:47.995Z,0.00
2023-01-03T06:14:47.966Z,0.00
2023-01-03T06:15:47.964Z,0.00
2023-01-03T06:16:48.020Z,0.00
2023-01-03T06:17:47.944Z,0.00
2023-01-03T06:18:47.940Z,0.00
2023-01-03T06:19:47.932Z,0.00
2023-01-03T06:20:47.900Z,0.00
2023-01-03T06:21:47.908Z,0.00
2023-01-03T06:22:47.865Z,0.00
2023-01-03T06:23:47.869Z,0.00
2023-01-03T06:24:47.842Z,0.00
2023-01-03T06:25:47.848Z,0.00
2023-01-03T06:26:47.850Z,0.00
2023-01-03T06:27:47.841Z,0.00
2023-01-03T06:28:47.804Z,0.00
2023-01-03T06:29:47.775Z,0.00
2023-01-03T06:30:47.871Z,0.00
2023-01-03T06:31:47.772Z,0.00
2023-01-03T06:32:47.756Z,0.00
2023-01-03T06:33:47.749Z,0.00
2023-01-03T06:34:47.716Z,0.00
2023-01-03T06:35:47.712Z,0.00
2023-01-03T06:36:47.720Z,0.00
2023-01-03T06:37:47.698Z,0.00
2023-01-03T06:38:47.676Z,0.00
2023-01-03T06:39:47.664Z,0.00
2023-01-03T06:40:47.637Z,0.00
2023-01-03T06:41:47.652Z,0.00
2023-01-03T06:42:47.648Z,0.00
2023-01-03T06:43:47.613Z,0.00
2023-01-03T06:44:47.586Z,0.00
2023-01-03T06:45:47.643Z,0.00
2023-01-03T06:46:47.637Z,0.00
2023-01-03T06:47:47.573Z,0.00
2023-01-03T06:48:47.527Z,4.00
2023-01-03T06:49:47.527Z,4.00
2023-01-03T06:50:47.507Z,0.00
2023-01-03T06:51:47.530Z,0.00
2023-01-03T06:52:47.489Z,4.00
2023-01-03T06:53:47.481Z,4.00
2023-01-03T06:54:47.459Z,4.00
2023-01-03T06:55:54.441Z,4.00
2023-01-03T06:56:48.439Z,8.00
2023-01-03T06:57:47.477Z,4.00
2023-01-03T06:58:47.426Z,8.00
2023-01-03T06:59:47.396Z,8.00
2023-01-03T07:00:47.384Z,12.00
2023-01-03T07:01:47.518Z,12.00
2023-01-03T07:02:47.487Z,12.00
2023-01-03T07:03:47.338Z,16.00
2023-01-03T07:04:47.411Z,16.00
2023-01-03T07:05:47.329Z,16.00
2023-01-03T07:06:47.308Z,16.00
2023-01-03T07:07:47.300Z,20.00
2023-01-03T07:08:48.591Z,24.00
2023-01-03T07:09:47.275Z,24.00
2023-01-03T07:10:47.250Z,28.00
2023-01-03T07:11:47.271Z,28.00
2023-01-03T07:12:47.230Z,32.00
2023-01-03T07:13:47.207Z,32.00
2023-01-03T07:14:47.198Z,36.00
2023-01-03T07:15:47.228Z,40.00
2023-01-03T07:16:47.176Z,40.00
2023-01-03T07:17:47.213Z,44.00
2023-01-03T07:18:54.678Z,48.00
2023-01-03T07:19:48.153Z,52.00
2023-01-03T07:20:47.121Z,56.00
2023-01-03T07:21:47.124Z,60.00
2023-01-03T07:22:47.108Z,60.00
2023-01-03T07:23:47.090Z,64.00
2023-01-03T07:24:47.093Z,68.00
2023-01-03T07:25:47.049Z,72.00
2023-01-03T07:26:47.047Z,76.00
2023-01-03T07:27:47.049Z,80.00
2023-01-03T07:28:47.017Z,80.00
2023-01-03T07:29:47.011Z,84.00
2023-01-03T07:30:47.039Z,88.00
2023-01-03T07:31:47.040Z,88.00
2023-01-03T07:32:46.960Z,96.00
2023-01-03T07:33:46.971Z,96.00
2023-01-03T07:34:46.936Z,104.00
2023-01-03T07:35:46.951Z,104.00
2023-01-03T07:36:46.909Z,108.00
2023-01-03T07:37:46.902Z,116.00
2023-01-03T07:38:46.897Z,124.00
2023-01-03T07:39:46.889Z,128.00
2023-01-03T07:40:46.862Z,132.00
2023-01-03T07:41:46.851Z,140.00
2023-01-03T07:42:46.840Z,144.00
2023-01-03T07:43:46.828Z,148.00
2023-01-03T07:44:46.800Z,156.00
2023-01-03T07:45:46.820Z,164.00
2023-01-03T07:46:46.847Z,172.00
2023-01-03T07:47:46.785Z,184.00
2023-01-03T07:48:46.774Z,200.00
2023-01-03T07:49:46.741Z,216.00
2023-01-03T07:50:46.743Z,220.00
2023-01-03T07:51:46.739Z,228.00
2023-01-03T07:52:46.717Z,232.00
2023-01-03T07:53:46.709Z,236.00
2023-01-03T07:54:46.670Z,244.00
2023-01-03T07:55:46.689Z,252.00
2023-01-03T07:56:46.653Z,256.00
2023-01-03T07:57:46.639Z,260.00
2023-01-03T07:58:46.637Z,268.00
2023-01-03T07:59:46.663Z,272.00
2023-01-03T08:00:46.599Z,276.00
2023-01-03T08:01:46.674Z,284.00
2023-01-03T08:02:46.678Z,284.00
2023-01-03T08:03:46.620Z,296.00
2023-01-03T08:04:46.562Z,304.00
2023-01-03T08:05:46.546Z,312.00
2023-01-03T08:06:46.531Z,324.00
2023-01-03T08:07:46.524Z,332.00
2023-01-03T08:08:46.533Z,344.00
2023-01-03T08:09:46.496Z,372.00
2023-01-03T08:10:46.471Z,384.00
2023-01-03T08:11:46.486Z,400.00
2023-01-03T08:12:46.444Z,404.00
2023-01-03T08:13:46.431Z,412.00
2023-01-03T08:14:46.456Z,420.00
2023-01-03T08:15:46.464Z,420.00
2023-01-03T08:16:46.397Z,440.00
2023-01-03T08:17:46.415Z,460.00
2023-01-03T08:18:46.400Z,484.00
2023-01-03T08:19:46.389Z,500.00
2023-01-03T08:20:46.353Z,516.00
2023-01-03T08:21:46.332Z,524.00
2023-01-03T08:22:46.303Z,544.00
2023-01-03T08:23:46.318Z,568.00
2023-01-03T08:24:46.304Z,592.00
2023-01-03T08:25:46.263Z,612.00
2023-01-03T08:26:46.265Z,632.00
2023-01-03T08:27:50.212Z,660.00
2023-01-03T08:28:46.225Z,696.00
2023-01-03T08:29:46.254Z,736.00
2023-01-03T08:30:46.192Z,772.00
2023-01-03T08:31:46.257Z,796.00
2023-01-03T08:32:46.188Z,828.00
2023-01-03T08:33:46.228Z,856.00
2023-01-03T08:34:46.173Z,884.00
2023-01-03T08:35:46.176Z,912.00
2023-01-03T08:36:46.135Z,916.00
2023-01-03T08:37:46.112Z,956.00
2023-01-03T08:38:46.132Z,980.00
2023-01-03T08:39:46.135Z,972.00
2023-01-03T08:40:46.066Z,952.00
2023-01-03T08:41:46.109Z,928.00
2023-01-03T08:42:46.062Z,948.00
2023-01-03T08:43:46.080Z,1004.00
2023-01-03T08:44:46.040Z,1080.00
2023-01-03T08:45:46.047Z,1128.00
2023-01-03T08:46:46.064Z,1140.00
2023-01-03T08:47:46.003Z,1148.00
2023-01-03T08:48:45.993Z,1140.00
2023-01-03T08:49:45.976Z,1144.00
2023-01-03T08:50:45.950Z,1160.00
2023-01-03T08:51:45.945Z,1180.00
2023-01-03T08:52:46.015Z,1220.00
2023-01-03T08:53:45.934Z,1236.00
2023-01-03T08:54:45.940Z,1232.00
2023-01-03T08:55:45.905Z,1236.00
2023-01-03T08:56:45.873Z,1276.00
2023-01-03T08:57:45.867Z,1320.00
2023-01-03T08:58:45.853Z,1392.00
2023-01-03T08:59:45.876Z,1500.00
2023-01-03T09:00:45.824Z,1588.00
2023-01-03T09:01:45.941Z,1532.00
2023-01-03T09:02:45.951Z,1560.00
2023-01-03T09:03:45.967Z,1568.00
2023-01-03T09:04:45.809Z,1596.00
2023-01-03T09:05:45.788Z,1744.00
2023-01-03T09:06:45.747Z,1876.00
2023-01-03T09:07:45.732Z,1864.00
2023-01-03T09:08:45.707Z,2132.00
2023-01-03T09:09:45.793Z,2396.00
2023-01-03T09:10:47.961Z,2024.00
2023-01-03T09:11:45.687Z,2300.00
2023-01-03T09:12:45.666Z,2268.00
2023-01-03T09:13:45.656Z,2552.00
2023-01-03T09:14:45.687Z,2600.00
2023-01-03T09:15:45.669Z,2484.00
2023-01-03T09:16:49.209Z,2332.00
2023-01-03T09:17:45.607Z,2208.00
2023-01-03T09:18:45.588Z,2276.00
2023-01-03T09:19:45.575Z,1608.00
2023-01-03T09:20:45.605Z,2264.00
2023-01-03T09:21:45.574Z,2200.00
2023-01-03T09:22:45.536Z,2052.00
2023-01-03T09:23:45.556Z,1968.00
2023-01-03T09:24:45.522Z,1884.00
2023-01-03T09:25:45.545Z,1728.00
2023-01-03T09:26:50.680Z,1676.00
2023-01-03T09:27:46.474Z,1672.00
2023-01-03T09:28:45.473Z,1652.00
2023-01-03T09:29:45.510Z,1720.00
2023-01-03T09:30:54.151Z,1748.00
2023-01-03T09:31:45.993Z,1756.00
2023-01-03T09:32:45.427Z,1780.00
2023-01-03T09:33:45.393Z,1820.00
2023-01-03T09:34:45.379Z,2012.00
2023-01-03T09:35:45.408Z,2140.00
2023-01-03T09:36:45.370Z,2256.00
2023-01-03T09:37:48.856Z,2584.00
2023-01-03T09:38:45.311Z,2400.00
2023-01-03T09:39:45.325Z,2368.00
2023-01-03T09:40:45.325Z,2340.00
2023-01-03T09:41:45.304Z,2676.00
2023-01-03T09:42:45.266Z,3140.00
2023-01-03T09:43:45.279Z,3568.00
2023-01-03T09:44:45.232Z,3492.00
2023-01-03T09:45:45.260Z,3400.00
2023-01-03T09:46:45.272Z,3164.00
2023-01-03T10:03:27.387Z,2296.00
2023-01-03T10:04:27.292Z,2388.00
2023-01-03T10:05:27.304Z,2368.00
2023-01-03T10:06:27.252Z,2324.00
2023-01-03T10:07:27.248Z,2356.00
2023-01-03T10:08:27.252Z,2272.00
2023-01-03T10:09:27.244Z,2196.00
2023-01-03T10:10:27.258Z,2128.00
2023-01-03T10:11:27.211Z,2048.00
2023-01-03T10:12:27.185Z,2036.00
2023-01-03T10:13:27.191Z,2052.00
2023-01-03T10:14:27.191Z,2092.00
2023-01-03T10:15:27.179Z,2092.00
2023-01-03T10:16:27.177Z,2080.00
2023-01-03T10:17:27.128Z,2088.00
2023-01-03T10:18:27.126Z,2080.00
2023-01-03T10:19:27.093Z,2080.00
2023-01-03T10:20:30.946Z,2088.00
2023-01-03T10:21:28.076Z,2064.00
2023-01-03T10:22:27.067Z,2080.00
2023-01-03T10:23:27.054Z,2148.00
2023-01-03T10:24:27.037Z,2180.00
2023-01-03T10:25:27.025Z,2168.00
2023-01-03T10:26:32.600Z,2236.00
2023-01-03T10:27:28.052Z,2292.00
2023-01-03T10:28:26.996Z,2340.00
2023-01-03T10:29:26.978Z,2448.00
2023-01-03T10:30:26.969Z,2464.00
2023-01-03T10:31:27.075Z,2448.00
2023-01-03T10:32:26.929Z,2448.00
2023-01-03T10:33:26.923Z,2552.00
2023-01-03T10:34:26.949Z,2828.00
2023-01-03T10:35:26.926Z,2964.00
2023-01-03T10:36:26.902Z,3212.00
2023-01-03T10:37:26.906Z,3108.00
2023-01-03T10:38:26.863Z,3124.00
2023-01-03T10:39:26.882Z,3068.00
2023-01-03T10:40:26.867Z,3284.00
2023-01-03T10:41:26.816Z,3484.00
2023-01-03T10:42:26.806Z,3708.00
2023-01-03T10:43:26.799Z,4064.00
2023-01-03T10:44:26.776Z,4252.00
2023-01-03T10:45:26.834Z,4224.00
2023-01-03T10:46:26.955Z,4152.00
2023-01-03T10:47:26.747Z,2984.00
2023-01-03T10:48:26.731Z,4164.00
2023-01-03T10:49:29.082Z,4400.00
2023-01-03T10:50:26.706Z,4724.00
2023-01-03T10:51:26.702Z,4836.00
2023-01-03T10:52:26.673Z,4900.00
2023-01-03T10:53:26.676Z,4828.00
2023-01-03T10:54:26.663Z,4688.00
2023-01-03T10:55:26.649Z,3028.00
2023-01-03T10:56:26.628Z,3724.00
2023-01-03T10:57:26.617Z,2812.00
2023-01-03T10:58:32.236Z,2748.00
2023-01-03T10:59:27.592Z,4272.00
2023-01-03T11:00:26.626Z,4532.00
2023-01-03T11:01:26.670Z,4700.00
2023-01-03T11:02:26.734Z,4736.00
2023-01-03T11:03:26.645Z,4936.00
2023-01-03T11:04:26.524Z,5312.00
2023-01-03T11:05:26.571Z,5180.00
2023-01-03T11:06:26.510Z,5216.00
2023-01-03T11:07:26.486Z,5180.00
2023-01-03T11:08:26.489Z,4968.00
2023-01-03T11:09:26.492Z,4740.00
2023-01-03T11:10:26.486Z,5328.00
2023-01-03T11:11:26.444Z,5780.00
2023-01-03T11:12:26.437Z,5772.00
2023-01-03T11:13:26.414Z,5544.00
2023-01-03T11:14:26.451Z,5996.00
2023-01-03T11:15:26.369Z,5672.00
2023-01-03T11:16:26.418Z,5412.00
2023-01-03T11:17:26.365Z,5608.00
2023-01-03T11:18:26.345Z,4108.00
2023-01-03T11:19:26.331Z,5260.00
2023-01-03T11:20:26.318Z,5096.00
2023-01-03T11:21:26.322Z,4932.00
2023-01-03T11:22:27.946Z,4752.00
2023-01-03T11:23:26.282Z,5240.00
2023-01-03T11:24:26.255Z,5472.00
2023-01-03T11:25:26.263Z,5508.00
2023-01-03T11:26:26.242Z,5264.00
2023-01-03T11:27:26.245Z,5008.00
2023-01-03T11:28:26.203Z,4740.00
2023-01-03T11:29:26.195Z,4100.00
2023-01-03T11:30:26.172Z,3928.00
2023-01-03T11:31:26.211Z,3540.00
2023-01-03T11:32:26.269Z,2176.00
2023-01-03T11:33:29.464Z,3128.00
2023-01-03T11:34:26.135Z,1904.00
2023-01-03T11:35:26.136Z,3684.00
2023-01-03T11:36:26.103Z,3432.00
2023-01-03T11:37:26.105Z,3640.00
2023-01-03T11:38:26.073Z,4060.00
2023-01-03T11:39:27.150Z,4536.00
2023-01-03T11:40:26.054Z,4256.00
2023-01-03T11:41:26.055Z,5000.00
2023-01-03T11:42:26.028Z,3508.00
2023-01-03T11:43:26.030Z,4700.00
2023-01-03T11:44:25.994Z,3148.00
2023-01-03T11:45:25.991Z,5076.00
2023-01-03T11:46:26.054Z,5892.00
2023-01-03T11:47:25.963Z,6292.00
2023-01-03T11:48:25.956Z,6500.00
2023-01-03T11:49:25.936Z,5860.00
2023-01-03T11:50:25.936Z,7500.00
2023-01-03T11:51:25.931Z,3288.00
2023-01-03T11:52:25.888Z,5716.00
2023-01-03T11:53:25.880Z,8568.00
2023-01-03T11:54:25.868Z,10760.00
2023-01-03T11:55:25.869Z,9716.00
2023-01-03T11:56:25.860Z,10680.00
2023-01-03T11:57:25.828Z,10584.00
2023-01-03T11:58:25.819Z,10528.00
2023-01-03T11:59:25.837Z,3772.00
2023-01-03T12:00:25.792Z,2660.00
2023-01-03T12:01:25.820Z,2564.00
2023-01-03T12:02:25.899Z,2408.00
2023-01-03T12:03:25.907Z,5000.00
2023-01-03T12:04:25.845Z,2568.00
2023-01-03T12:05:25.729Z,3036.00
2023-01-03T12:06:29.025Z,3296.00
2023-01-03T12:08:26.721Z,3352.00
2023-01-03T12:09:25.685Z,3296.00
2023-01-03T12:10:25.669Z,3160.00
2023-01-03T12:11:25.663Z,2996.00
2023-01-03T12:12:25.642Z,3112.00
2023-01-03T12:13:29.683Z,2760.00
2023-01-03T12:14:25.605Z,1876.00
2023-01-03T12:15:25.592Z,1740.00
2023-01-03T12:16:25.671Z,2144.00
2023-01-03T12:17:25.572Z,2740.00
2023-01-03T12:18:25.559Z,3140.00
2023-01-03T12:19:25.582Z,3228.00
2023-01-03T12:20:25.541Z,3452.00
2023-01-03T12:21:25.518Z,2824.00
2023-01-03T12:22:25.506Z,2168.00
2023-01-03T12:23:25.508Z,1880.00
2023-01-03T12:24:25.485Z,1596.00
2023-01-03T12:25:25.463Z,1652.00
2023-01-03T12:26:25.465Z,1872.00
2023-01-03T12:27:25.477Z,2008.00
2023-01-03T12:28:25.441Z,2152.00
2023-01-03T12:29:25.438Z,3976.00
2023-01-03T12:30:25.419Z,10516.00
2023-01-03T12:31:31.340Z,10848.00
2023-01-03T12:32:26.375Z,5728.00
2023-01-03T12:33:25.400Z,7228.00
2023-01-03T12:34:25.365Z,1804.00
2023-01-03T12:35:25.362Z,2156.00
2023-01-03T12:36:25.345Z,1732.00
2023-01-03T12:37:25.305Z,1264.00
2023-01-03T12:38:25.299Z,1060.00
2023-01-03T12:39:32.493Z,1080.00
2023-01-03T12:40:26.262Z,1320.00
2023-01-03T12:41:25.295Z,1240.00
2023-01-03T12:42:25.270Z,1160.00
2023-01-03T12:43:25.236Z,1356.00
2023-01-03T12:44:25.239Z,1788.00
2023-01-03T12:45:28.303Z,2360.00
2023-01-03T12:46:26.249Z,2664.00
2023-01-03T12:47:25.199Z,2760.00
2023-01-03T12:48:25.172Z,3024.00
2023-01-03T12:49:25.148Z,3768.00
2023-01-03T12:50:25.150Z,3764.00
2023-01-03T12:51:25.125Z,5308.00
2023-01-03T12:52:25.138Z,3772.00
2023-01-03T12:53:25.109Z,6128.00
2023-01-03T12:54:25.097Z,6348.00
2023-01-03T12:55:25.077Z,5148.00
2023-01-03T12:56:25.090Z,6060.00
2023-01-03T12:57:25.062Z,6316.00
2023-01-03T12:58:25.048Z,2340.00
2023-01-03T12:59:25.025Z,3168.00
2023-01-03T13:00:25.026Z,7656.00
2023-01-03T13:01:25.056Z,8008.00
2023-01-03T13:02:25.161Z,8880.00
2023-01-03T13:03:25.052Z,9424.00
2023-01-03T13:04:25.021Z,8936.00
2023-01-03T13:05:24.953Z,8392.00
2023-01-03T13:06:24.948Z,8524.00
2023-01-03T13:07:24.932Z,8384.00
2023-01-03T13:08:24.912Z,8004.00
2023-01-03T13:09:24.906Z,7216.00
2023-01-03T13:10:24.884Z,7564.00
2023-01-03T13:11:24.872Z,7904.00
2023-01-03T13:12:24.888Z,7452.00
2023-01-03T13:13:24.856Z,8076.00
2023-01-03T13:14:24.851Z,8452.00
2023-01-03T13:15:27.419Z,8096.00